createdAt,value
2023-02-04T00:00:23.136Z,2.92
2023-02-04T00:03:08.526Z,4.30
2023-02-04T00:05:53.969Z,2.63
2023-02-04T00:08:39.600Z,3.40
2023-02-04T00:11:25.220Z,3.20
2023-02-04T00:14:11.154Z,3.10
2023-02-04T00:16:56.665Z,3.55
2023-02-04T00:19:42.051Z,2.90
2023-02-04T00:22:28.918Z,3.40
2023-02-04T00:25:14.669Z,3.63
2023-02-04T00:28:00.337Z,4.03
2023-02-04T00:30:47.265Z,3.45
2023-02-04T00:33:32.749Z,3.10
2023-02-04T00:36:18.141Z,3.10
2023-02-04T00:39:04.629Z,3.42
2023-02-04T00:41:51.612Z,3.42
2023-02-04T00:44:37.277Z,3.20
2023-02-04T00:47:22.846Z,3.30
2023-02-04T00:50:08.365Z,3.40
2023-02-04T00:52:53.895Z,3.40
2023-02-04T00:55:39.380Z,3.80
2023-02-04T00:58:24.692Z,3.22
2023-02-04T01:01:10.233Z,3.63
2023-02-04T01:03:55.825Z,3.58
2023-02-04T01:06:42.497Z,3.53
2023-02-04T01:09:28.651Z,4.25
2023-02-04T01:12:14.248Z,3.88
2023-02-04T01:14:59.883Z,4.45
2023-02-04T01:17:45.484Z,3.90
2023-02-04T01:20:32.134Z,4.13
2023-02-04T01:23:17.850Z,3.42
2023-02-04T01:26:03.697Z,4.07
2023-02-04T01:28:49.046Z,3.92
2023-02-04T01:31:34.780Z,4.38
2023-02-04T01:34:21.269Z,4.32
2023-02-04T01:37:07.442Z,4.00
2023-02-04T01:39:53.329Z,3.90
2023-02-04T01:42:39.395Z,4.07
2023-02-04T01:45:26.967Z,4.25
2023-02-04T01:48:14.114Z,4.30
2023-02-04T01:51:08.712Z,4.50
2023-02-04T01:53:55.362Z,4.10
2023-02-04T01:56:45.537Z,4.43
2023-02-04T01:59:30.827Z,4.22
2023-02-04T02:02:42.159Z,4.35
2023-02-04T02:05:37.040Z,4.67
2023-02-04T02:08:22.534Z,4.88
2023-02-04T02:11:08.108Z,4.25
2023-02-04T02:13:54.284Z,4.85
2023-02-04T02:16:39.958Z,4.90
2023-02-04T02:19:34.276Z,5.15
2023-02-04T02:22:49.699Z,4.50
2023-02-04T02:25:34.994Z,4.45
2023-02-04T02:28:24.156Z,4.88
2023-02-04T02:31:09.570Z,5.40
2023-02-04T02:33:55.288Z,4.60
2023-02-04T02:36:40.959Z,5.03
2023-02-04T02:39:26.869Z,5.50
2023-02-04T02:42:16.232Z,4.72
2023-02-04T02:45:10.863Z,5.35
2023-02-04T02:47:58.988Z,5.20
2023-02-04T02:50:45.184Z,5.55
2023-02-04T02:53:30.963Z,5.47
2023-02-04T02:56:19.120Z,5.40
2023-02-04T02:59:17.746Z,5.05
2023-02-04T03:02:05.243Z,6.10
2023-02-04T03:04:58.129Z,5.35
2023-02-04T03:07:46.856Z,5.85
2023-02-04T03:10:32.558Z,5.93
2023-02-04T03:13:18.920Z,6.20
2023-02-04T03:16:06.240Z,6.43
2023-02-04T03:18:51.925Z,5.70
2023-02-04T03:21:37.876Z,5.43
2023-02-04T03:24:24.680Z,6.32
2023-02-04T03:27:10.104Z,6.15
2023-02-04T03:29:55.604Z,6.30
2023-02-04T03:32:41.641Z,6.57
2023-02-04T03:35:27.473Z,6.15
2023-02-04T03:38:13.013Z,6.47
2023-02-04T03:40:58.481Z,6.78
2023-02-04T03:43:43.940Z,6.72
2023-02-04T03:46:29.502Z,6.90
2023-02-04T03:49:14.928Z,6.97
2023-02-04T03:52:00.634Z,6.47
2023-02-04T03:54:46.719Z,6.88
2023-02-04T03:57:32.247Z,7.75
2023-02-04T04:00:17.849Z,6.80
2023-02-04T04:03:03.369Z,6.93
2023-02-04T04:05:48.931Z,6.47
2023-02-04T04:08:34.648Z,7.18
2023-02-04T04:11:19.936Z,6.97
2023-02-04T04:14:05.409Z,7.32
2023-02-04T04:16:50.936Z,7.60
2023-02-04T04:19:36.478Z,6.65
2023-02-04T04:22:21.960Z,7.32
2023-02-04T04:25:08.368Z,7.25
2023-02-04T04:27:53.882Z,7.05
2023-02-04T04:30:39.497Z,7.70
2023-02-04T04:33:25.058Z,7.05
2023-02-04T04:36:10.486Z,7.43
2023-02-04T04:38:55.730Z,7.00
2023-02-04T04:41:41.219Z,7.13
2023-02-04T04:44:26.573Z,7.18
2023-02-04T04:47:12.155Z,7.57
2023-02-04T04:49:57.571Z,7.38
2023-02-04T04:52:42.917Z,7.55
2023-02-04T04:55:28.431Z,7.82
2023-02-04T04:58:13.915Z,7.57
2023-02-04T05:00:59.343Z,6.45
2023-02-04T05:03:44.984Z,6.60
2023-02-04T05:06:30.767Z,6.60
2023-02-04T05:09:17.437Z,6.72
2023-02-04T05:12:02.795Z,6.10
2023-02-04T05:14:48.471Z,6.80
2023-02-04T05:17:34.418Z,6.40
2023-02-04T05:20:19.962Z,5.53
2023-02-04T05:23:05.955Z,6.32
2023-02-04T05:25:51.279Z,6.25
2023-02-04T05:28:36.916Z,5.60
2023-02-04T05:31:22.355Z,5.63
2023-02-04T05:34:07.804Z,5.70
2023-02-04T05:36:53.286Z,5.82
2023-02-04T05:39:38.828Z,5.85
2023-02-04T05:42:24.797Z,6.30
2023-02-04T05:45:15.951Z,6.05
2023-02-04T05:48:01.174Z,6.13
2023-02-04T05:50:46.672Z,5.85
2023-02-04T05:53:32.133Z,6.80
2023-02-04T05:56:17.612Z,5.15
2023-02-04T05:59:02.886Z,5.93
2023-02-04T06:01:48.272Z,5.20
2023-02-04T06:04:33.900Z,6.05
2023-02-04T06:07:19.293Z,5.63
2023-02-04T06:10:05.067Z,6.05
2023-02-04T06:12:50.613Z,5.90
2023-02-04T06:15:36.218Z,6.10
2023-02-04T06:18:22.111Z,5.97
2023-02-04T06:21:07.479Z,6.78
2023-02-04T06:23:53.120Z,6.57
2023-02-04T06:26:38.482Z,6.15
2023-02-04T06:29:23.861Z,5.88
2023-02-04T06:32:09.430Z,6.15
2023-02-04T06:34:54.837Z,6.15
2023-02-04T06:37:40.527Z,7.15
2023-02-04T06:40:26.133Z,7.07
2023-02-04T06:43:11.602Z,6.03
2023-02-04T06:45:57.188Z,6.00
2023-02-04T06:48:42.935Z,6.50
2023-02-04T06:51:28.353Z,5.72
2023-02-04T06:54:14.257Z,5.80
2023-02-04T06:57:06.445Z,5.82
2023-02-04T06:59:52.160Z,5.65
2023-02-04T07:02:39.823Z,5.78
2023-02-04T07:05:25.675Z,5.30
2023-02-04T07:08:11.134Z,6.22
2023-02-04T07:10:56.762Z,5.90
2023-02-04T07:13:42.219Z,5.80
2023-02-04T07:16:27.780Z,6.50
2023-02-04T07:19:13.394Z,5.72
2023-02-04T07:21:59.021Z,5.68
2023-02-04T07:24:44.708Z,6.07
2023-02-04T07:27:30.469Z,6.10
2023-02-04T07:30:16.190Z,5.93
2023-02-04T07:33:01.557Z,6.07
2023-02-04T07:35:47.076Z,5.35
2023-02-04T07:38:32.756Z,6.13
2023-02-04T07:41:19.016Z,5.75
2023-02-04T07:44:04.926Z,5.20
2023-02-04T07:46:50.322Z,6.10
2023-02-04T07:49:35.808Z,5.68
2023-02-04T07:52:21.645Z,5.53
2023-02-04T07:55:07.446Z,5.88
2023-02-04T07:57:52.885Z,5.38
2023-02-04T08:00:38.318Z,5.82
2023-02-04T08:03:23.901Z,5.35
2023-02-04T08:06:09.807Z,7.00
2023-02-04T08:08:55.225Z,5.70
2023-02-04T08:11:40.823Z,4.85
2023-02-04T08:14:26.271Z,4.80
2023-02-04T08:17:11.909Z,5.03
2023-02-04T08:19:57.709Z,4.50
2023-02-04T08:22:42.946Z,5.25
2023-02-04T08:25:29.700Z,4.75
2023-02-04T08:28:15.324Z,4.70
2023-02-04T08:31:00.940Z,4.88
2023-02-04T08:33:46.374Z,4.20
2023-02-04T08:36:31.757Z,3.70
2023-02-04T08:39:17.339Z,3.90
2023-02-04T08:42:02.878Z,3.65
2023-02-04T08:44:48.368Z,3.67
2023-02-04T08:47:34.090Z,2.97
2023-02-04T08:50:22.074Z,26.67
2023-02-04T08:53:13.242Z,4.75
2023-02-04T08:55:58.682Z,3.97
2023-02-04T08:58:44.734Z,3.55
2023-02-04T09:01:31.042Z,2.72
2023-02-04T09:04:16.498Z,3.53
2023-02-04T09:07:02.016Z,3.08
2023-02-04T09:09:47.443Z,2.83
2023-02-04T09:12:33.215Z,2.47
2023-02-04T09:15:18.725Z,2.05
2023-02-04T09:18:16.174Z,1.77
2023-02-04T09:21:01.496Z,1.75
2023-02-04T09:23:48.440Z,1.42
2023-02-04T09:26:33.829Z,1.50
2023-02-04T09:29:19.310Z,1.30
2023-02-04T09:32:05.132Z,1.20
2023-02-04T09:34:50.411Z,1.00
2023-02-04T09:37:36.016Z,1.40
2023-02-04T09:40:21.859Z,2.95
2023-02-04T09:43:07.688Z,3.25
2023-02-04T09:45:54.488Z,2.70
2023-02-04T09:48:40.160Z,4.57
2023-02-04T09:51:28.433Z,5.85
2023-02-04T09:54:16.711Z,3.20
2023-02-04T09:57:02.287Z,3.10
2023-02-04T09:59:48.534Z,3.63
2023-02-04T10:02:35.259Z,5.25
2023-02-04T10:05:29.270Z,7.43
2023-02-04T10:08:20.670Z,6.55
2023-02-04T10:11:09.095Z,5.47
2023-02-04T10:13:56.072Z,6.30
2023-02-04T10:16:43.693Z,17.58
2023-02-04T10:19:30.673Z,13.23
2023-02-04T10:22:21.646Z,9.13
2023-02-04T10:25:18.873Z,9.57
2023-02-04T10:28:04.623Z,6.80
2023-02-04T10:30:50.116Z,8.10
2023-02-04T10:33:37.286Z,7.28
2023-02-04T10:36:23.490Z,5.65
2023-02-04T10:39:18.610Z,7.22
2023-02-04T10:42:05.625Z,7.32
2023-02-04T10:44:51.845Z,8.32
2023-02-04T10:47:37.505Z,2.65
2023-02-04T10:50:25.895Z,1.73
2023-02-04T10:53:33.426Z,2.80
2023-02-04T10:56:21.660Z,3.90
2023-02-04T10:59:20.893Z,3.40
2023-02-04T11:02:34.652Z,3.05
2023-02-04T11:05:23.384Z,3.90
2023-02-04T11:08:27.291Z,2.10
2023-02-04T11:11:19.450Z,2.00
2023-02-04T11:14:04.993Z,2.22
2023-02-04T11:16:50.485Z,2.28
2023-02-04T11:19:38.562Z,2.70
2023-02-04T11:22:45.150Z,2.63
2023-02-04T11:25:33.516Z,2.20
2023-02-04T11:28:26.712Z,2.90
2023-02-04T11:31:26.751Z,3.53
2023-02-04T11:34:14.958Z,2.60
2023-02-04T11:37:26.680Z,2.20
2023-02-04T11:40:30.575Z,2.30
2023-02-04T11:43:16.594Z,2.20
2023-02-04T11:46:16.501Z,2.25
2023-02-04T11:49:02.515Z,2.05
2023-02-04T11:51:47.623Z,2.55
2023-02-04T11:54:33.231Z,2.60
2023-02-04T11:57:18.744Z,2.35
2023-02-04T12:00:04.590Z,2.90
2023-02-04T12:02:58.580Z,2.45
2023-02-04T12:05:47.506Z,2.72
2023-02-04T12:08:35.320Z,2.35
2023-02-04T12:11:30.566Z,2.85
2023-02-04T12:14:19.734Z,2.45
2023-02-04T12:17:18.972Z,2.75
2023-02-04T12:20:04.897Z,2.50
2023-02-04T12:22:49.921Z,2.70
2023-02-04T12:25:35.602Z,3.85
2023-02-04T12:28:21.728Z,3.22
2023-02-04T12:31:07.535Z,2.70
2023-02-04T12:33:54.191Z,3.60
2023-02-04T12:36:39.606Z,3.42
2023-02-04T12:39:25.082Z,3.17
2023-02-04T12:42:10.497Z,2.85
2023-02-04T12:44:55.871Z,3.78
2023-02-04T12:47:41.817Z,3.40
2023-02-04T12:50:26.985Z,2.90
2023-02-04T12:53:12.456Z,3.20
2023-02-04T12:55:57.954Z,2.85
2023-02-04T12:58:43.328Z,2.63
2023-02-04T13:01:28.930Z,2.55
2023-02-04T13:04:14.487Z,2.92
2023-02-04T13:06:59.864Z,2.88
2023-02-04T13:09:45.564Z,3.13
2023-02-04T13:12:31.075Z,2.83
2023-02-04T13:15:16.886Z,2.80
2023-02-04T13:18:02.100Z,2.45
2023-02-04T13:20:48.002Z,2.97
2023-02-04T13:23:33.399Z,2.95
2023-02-04T13:26:18.862Z,2.90
2023-02-04T13:29:04.399Z,2.90
2023-02-04T13:31:49.998Z,2.70
2023-02-04T13:34:35.486Z,3.67
2023-02-04T13:37:20.925Z,3.03
2023-02-04T13:40:07.950Z,3.47
2023-02-04T13:42:53.429Z,3.60
2023-02-04T13:45:39.970Z,3.50
2023-02-04T13:48:25.559Z,3.13
2023-02-04T13:51:11.060Z,3.50
2023-02-04T13:53:56.913Z,3.08
2023-02-04T13:56:42.714Z,3.30
2023-02-04T13:59:28.039Z,3.40
2023-02-04T14:02:13.476Z,4.47
2023-02-04T14:04:59.107Z,3.45
2023-02-04T14:07:44.449Z,3.20
2023-02-04T14:10:30.381Z,3.25
2023-02-04T14:13:16.115Z,3.20
2023-02-04T14:16:01.484Z,3.63
2023-02-04T14:18:48.258Z,3.28
2023-02-04T14:21:33.770Z,3.53
2023-02-04T14:24:20.438Z,3.63
2023-02-04T14:27:07.707Z,2.78
2023-02-04T14:29:53.297Z,3.40
2023-02-04T14:32:38.718Z,3.28
2023-02-04T14:35:25.124Z,3.63
2023-02-04T14:38:11.435Z,3.65
2023-02-04T14:40:58.571Z,3.30
2023-02-04T14:43:44.192Z,4.40
2023-02-04T14:46:29.700Z,3.40
2023-02-04T14:49:16.357Z,3.70
2023-02-04T14:52:03.840Z,3.92
2023-02-04T14:54:49.039Z,4.22
2023-02-04T14:57:34.728Z,3.50
2023-02-04T15:00:21.017Z,3.17
2023-02-04T15:03:06.541Z,4.22
2023-02-04T15:05:51.981Z,13.75
2023-02-04T15:08:37.543Z,4.57
2023-02-04T15:11:23.009Z,46.03
2023-02-04T15:14:08.442Z,45.72
2023-02-04T15:16:53.997Z,9.90
2023-02-04T15:19:39.340Z,5.35
2023-02-04T15:22:24.630Z,4.70
2023-02-04T15:25:10.252Z,5.28
2023-02-04T15:27:55.642Z,4.60
2023-02-04T15:30:41.193Z,6.28
2023-02-04T15:33:26.677Z,5.43
2023-02-04T15:36:12.121Z,4.80
2023-02-04T15:38:57.651Z,3.55
2023-02-04T15:41:43.007Z,4.20
2023-02-04T15:44:28.602Z,4.22
2023-02-04T15:47:14.089Z,4.07
2023-02-04T15:49:59.763Z,4.18
2023-02-04T15:52:45.198Z,10.65
2023-02-04T15:55:30.818Z,9.82
2023-02-04T15:58:16.384Z,5.50
2023-02-04T16:01:02.249Z,6.55
2023-02-04T16:03:49.512Z,5.05
2023-02-04T16:06:35.323Z,4.72
2023-02-04T16:09:20.598Z,4.15
2023-02-04T16:12:06.218Z,4.32
2023-02-04T16:14:51.740Z,4.75
2023-02-04T16:17:37.202Z,4.28
2023-02-04T16:20:23.471Z,4.85
2023-02-04T16:23:08.651Z,5.20
2023-02-04T16:25:54.206Z,4.53
2023-02-04T16:28:39.728Z,5.00
2023-02-04T16:31:25.296Z,5.55
2023-02-04T16:34:10.790Z,5.30
2023-02-04T16:36:56.336Z,6.03
2023-02-04T16:39:44.604Z,5.80
2023-02-04T16:42:31.210Z,5.40
2023-02-04T16:45:16.580Z,5.82
2023-02-04T16:48:02.149Z,5.80
2023-02-04T16:50:47.576Z,5.72
2023-02-04T16:53:32.987Z,5.50
2023-02-04T16:56:18.752Z,5.72
2023-02-04T16:59:04.525Z,6.13
2023-02-04T17:01:49.805Z,6.38
2023-02-04T17:04:35.251Z,6.60
2023-02-04T17:07:20.746Z,7.13
2023-02-04T17:10:06.845Z,7.07
2023-02-04T17:12:52.825Z,8.38
2023-02-04T17:15:38.572Z,7.57
2023-02-04T17:18:23.885Z,9.27
2023-02-04T17:21:09.477Z,8.10
2023-02-04T17:23:56.128Z,7.68
2023-02-04T17:26:41.435Z,7.05
2023-02-04T17:29:26.973Z,7.65
2023-02-04T17:32:12.463Z,8.90
2023-02-04T17:34:58.805Z,8.95
2023-02-04T17:37:44.359Z,8.55
2023-02-04T17:40:30.247Z,9.70
2023-02-04T17:43:16.196Z,9.40
2023-02-04T17:46:01.677Z,8.07
2023-02-04T17:48:47.398Z,8.10
2023-02-04T17:51:33.261Z,8.57
2023-02-04T17:54:18.646Z,9.38
2023-02-04T17:57:24.512Z,9.27
2023-02-04T18:00:21.114Z,8.52
2023-02-04T18:03:14.942Z,8.77
2023-02-04T18:06:27.100Z,8.73
2023-02-04T18:09:16.015Z,8.63
2023-02-04T18:12:05.518Z,8.50
2023-02-04T18:14:51.306Z,8.05
2023-02-04T18:17:36.881Z,8.45
2023-02-04T18:20:22.500Z,9.65
2023-02-04T18:23:15.739Z,8.85
2023-02-04T18:26:12.049Z,8.23
2023-02-04T18:29:00.116Z,8.68
2023-02-04T18:31:52.700Z,7.85
2023-02-04T18:34:44.184Z,7.60
2023-02-04T18:37:56.028Z,8.23
2023-02-04T18:40:42.801Z,7.78
2023-02-04T18:43:35.560Z,7.20
2023-02-04T18:46:28.018Z,7.53
2023-02-04T18:49:24.461Z,7.63
2023-02-04T18:52:19.976Z,7.30
2023-02-04T18:55:36.263Z,10.27
2023-02-04T18:58:39.468Z,10.18
2023-02-04T19:01:27.683Z,15.45
2023-02-04T19:04:20.677Z,11.57
2023-02-04T19:07:13.362Z,11.25
2023-02-04T19:09:59.823Z,12.27
2023-02-04T19:12:45.445Z,9.90
2023-02-04T19:15:39.470Z,9.23
2023-02-04T19:18:33.549Z,8.90
2023-02-04T19:21:22.576Z,8.90
2023-02-04T19:24:16.883Z,8.40
2023-02-04T19:27:16.572Z,8.82
2023-02-04T19:30:38.754Z,8.07
2023-02-04T19:33:42.063Z,7.95
2023-02-04T19:36:37.077Z,7.28
2023-02-04T19:39:38.404Z,7.65
2023-02-04T19:42:33.596Z,7.15
2023-02-04T19:45:25.455Z,7.13
2023-02-04T19:48:34.294Z,7.13
2023-02-04T19:51:21.122Z,8.05
2023-02-04T19:54:19.831Z,6.53
2023-02-04T19:57:21.666Z,6.97
2023-02-04T20:00:29.696Z,6.53
2023-02-04T20:03:31.367Z,7.20
2023-02-04T20:06:32.324Z,8.75
2023-02-04T20:09:19.596Z,7.60
2023-02-04T20:12:16.847Z,7.70
2023-02-04T20:15:15.943Z,9.68
2023-02-04T20:18:18.715Z,8.50
2023-02-04T20:21:11.604Z,7.75
2023-02-04T20:23:57.207Z,8.13
2023-02-04T20:26:42.682Z,7.75
2023-02-04T20:29:28.128Z,7.35
2023-02-04T20:32:21.290Z,6.95
2023-02-04T20:35:09.898Z,6.53
2023-02-04T20:37:59.261Z,6.63
2023-02-04T20:40:46.728Z,7.25
2023-02-04T20:43:34.740Z,7.57
2023-02-04T20:46:25.644Z,7.32
2023-02-04T20:49:22.555Z,7.63
2023-02-04T20:52:40.172Z,8.45
2023-02-04T20:55:29.971Z,7.72
2023-02-04T20:58:19.147Z,7.00
2023-02-04T21:01:33.616Z,8.15
2023-02-04T21:04:30.675Z,9.20
2023-02-04T21:07:19.782Z,7.53
2023-02-04T21:10:05.622Z,7.95
2023-02-04T21:12:50.780Z,7.43
2023-02-04T21:15:36.436Z,7.10
2023-02-04T21:18:22.602Z,6.65
2023-02-04T21:21:09.547Z,6.10
2023-02-04T21:23:54.974Z,6.05
2023-02-04T21:26:40.577Z,6.30
2023-02-04T21:29:26.238Z,5.93
2023-02-04T21:32:11.684Z,7.20
2023-02-04T21:34:57.086Z,8.50
2023-02-04T21:37:42.457Z,6.05
2023-02-04T21:40:28.088Z,7.38
2023-02-04T21:43:13.508Z,7.22
2023-02-04T21:45:59.097Z,7.40
2023-02-04T21:48:45.165Z,9.48
2023-02-04T21:51:30.855Z,9.27
2023-02-04T21:54:16.473Z,6.70
2023-02-04T21:57:05.472Z,6.13
2023-02-04T21:59:51.124Z,6.43
2023-02-04T22:02:36.679Z,5.40
2023-02-04T22:05:22.820Z,6.60
2023-02-04T22:08:08.496Z,6.43
2023-02-04T22:10:53.932Z,6.53
2023-02-04T22:13:39.343Z,6.68
2023-02-04T22:16:25.009Z,6.82
2023-02-04T22:19:10.496Z,6.78
2023-02-04T22:21:56.067Z,7.53
2023-02-04T22:24:41.627Z,6.28
2023-02-04T22:27:26.929Z,7.13
2023-02-04T22:30:14.588Z,6.82
2023-02-04T22:33:01.594Z,6.70
2023-02-04T22:35:48.447Z,6.38
2023-02-04T22:38:34.188Z,6.80
2023-02-04T22:41:19.786Z,6.38
2023-02-04T22:44:05.247Z,7.38
2023-02-04T22:46:51.076Z,7.47
2023-02-04T22:49:36.467Z,7.00
2023-02-04T22:52:22.118Z,8.15
2023-02-04T22:55:07.761Z,6.85
2023-02-04T22:57:53.196Z,6.38
2023-02-04T23:00:38.931Z,7.40
2023-02-04T23:03:24.296Z,6.50
2023-02-04T23:06:10.103Z,6.80
2023-02-04T23:08:55.417Z,5.65
2023-02-04T23:11:40.885Z,5.55
2023-02-04T23:14:26.337Z,5.85
2023-02-04T23:17:12.824Z,5.88
2023-02-04T23:19:58.061Z,6.25
2023-02-04T23:22:43.429Z,6.68
2023-02-04T23:25:28.802Z,5.85
2023-02-04T23:28:14.940Z,6.32
2023-02-04T23:31:00.356Z,5.47
2023-02-04T23:33:45.888Z,5.90
2023-02-04T23:36:32.952Z,6.03
2023-02-04T23:39:20.461Z,5.22
2023-02-04T23:42:06.222Z,5.60
2023-02-04T23:44:51.786Z,5.80
2023-02-04T23:47:37.248Z,5.68
2023-02-04T23:50:22.904Z,5.88
2023-02-04T23:53:08.323Z,5.80
2023-02-04T23:55:53.732Z,5.60
2023-02-04T23:58:39.152Z,5.40
